Time;durP1;ratioP1;P1;durP2;ratioP2;P2;SDS_P1;SDS_P2;PMS_P1;PMS_P2;Temp;Humidity;BMP_temperature;BMP_pressure;BME280_temperature;BME280_humidity;BME280_pressure;Samples;Min_cycle;Max_cycle;Signal;HPM_P1;HPM_P2
2022/06/12 00:00:58;;;;;;;;;;;;;;;-144.12;100.00;72078.50;5064455;28;19978;-71
2022/06/12 00:03:28;;;;;;;;;;;;;;;-144.12;100.00;72078.50;5061179;28;19959;-71
2022/06/12 00:05:56;;;;;;;;;;;;;;;-144.12;100.00;72078.50;5058545;28;19917;-70
2022/06/12 00:08:21;;;;;;;;;;;;;;;-144.12;100.00;72078.50;5056196;28;19916;-73
2022/06/12 00:10:49;;;;;;;;;;;;;;;-144.12;100.00;72078.50;5056290;28;19921;-70
2022/06/12 00:13:16;;;;;;;;;;;;;;;-144.12;100.00;72078.50;5062478;28;19925;-68
2022/06/12 00:15:42;;;;;;;;;;;;;;;-144.12;100.00;72078.50;5060352;28;20420;-69
2022/06/12 00:18:07;;;;;;;;;;;;;;;-144.12;100.00;72078.50;5060839;28;19959;-71
2022/06/12 00:20:32;;;;;;;;;;;;;;;-144.12;100.00;72078.50;5065378;28;19917;-72
2022/06/12 00:22:58;;;;;;;;;;;;;;;-144.12;100.00;72078.50;5055180;28;19924;-71
2022/06/12 00:25:29;;;;;;;;;;;;;;;-144.12;100.00;72078.50;5055725;28;20293;-70
2022/06/12 00:27:54;;;;;;;;;;;;;;;-144.12;100.00;72078.50;5058592;28;19917;-70
2022/06/12 00:30:23;;;;;;;;;;;;;;;-144.12;100.00;72078.50;5061900;28;19970;-69
2022/06/12 00:32:52;;;;;;;;;;;;;;;-144.12;100.00;72078.50;5061579;28;19921;-69
2022/06/12 00:35:23;;;;;;;;;;;;;;;-144.12;100.00;72078.50;5058244;28;19952;-70
2022/06/12 00:37:49;;;;;;;;;;;;;;;-144.12;100.00;72078.50;5058155;28;19924;-70
2022/06/12 00:40:14;;;;;;;;;;;;;;;-144.12;100.00;72078.50;5059978;28;19923;-69
2022/06/12 00:42:42;;;;;;;;;;;;;;;-144.12;100.00;72078.50;5060463;28;19928;-69
2022/06/12 00:45:25;;;;;;;;;;;;;;;-144.12;100.00;72078.50;5062134;28;20340;-70
2022/06/12 00:47:54;;;;;;;;;;;;;;;-144.12;100.00;72078.50;5062816;28;19920;-69
2022/06/12 00:50:19;;;;;;;;;;;;;;;-144.12;100.00;72078.50;5064768;28;19989;-69
2022/06/12 00:52:47;;;;;;;;;;;;;;;-144.12;100.00;72078.50;5065706;28;20007;-69
2022/06/12 00:55:30;;;;;;;;;;;;;;;-144.12;100.00;72078.50;5061119;28;19924;-69
2022/06/12 00:58:11;;;;;;;;;;;;;;;-144.12;100.00;72078.50;5058033;28;19983;-70
2022/06/12 01:00:38;;;;;;;;;;;;;;;-144.12;100.00;72078.50;5065863;28;19923;-69
2022/06/12 01:03:04;;;;;;;;;;;;;;;-144.12;100.00;72078.50;5066624;28;19969;-69
2022/06/12 01:08:15;;;;;;;;;;;;;;;-144.12;100.00;72078.50;5052665;28;20437;-69
2022/06/12 01:10:42;;;;;;;;;;;;;;;-144.12;100.00;72078.50;5061175;28;19916;-69
2022/06/12 01:13:11;;;;;;;;;;;;;;;-144.12;100.00;72078.50;5066726;28;19977;-71
2022/06/12 01:15:39;;;;;;;;;;;;;;;-144.12;100.00;72078.50;5057110;28;19917;-68
2022/06/12 01:18:07;;;;;;;;;;;;;;;-144.12;100.00;72078.50;5068160;28;19920;-70
2022/06/12 01:20:38;;;;;;;;;;;;;;;-144.12;100.00;72078.50;5060425;28;19923;-69
2022/06/12 01:23:18;;;;;;;;;;;;;;;-144.12;100.00;72078.50;5065461;28;20396;-69
2022/06/12 01:26:00;;;;;;;;;;;;;;;-144.12;100.00;72078.50;5054150;28;19920;-71
2022/06/12 01:28:45;;;;;;;;;;;;;;;-144.12;100.00;72078.50;5067112;28;19920;-72
2022/06/12 01:31:20;;;;;;;;;;;;;;;-144.12;100.00;72078.50;5060261;28;19969;-69
2022/06/12 01:33:51;;;;;;;;;;;;;;;-144.12;100.00;72078.50;5063896;28;20293;-70
2022/06/12 01:36:16;;;;;;;;;;;;;;;-144.12;100.00;72078.50;5054817;28;19920;-69
2022/06/12 01:38:52;;;;;;;;;;;;;;;-144.12;100.00;72078.50;5061833;28;19924;-70
2022/06/12 01:41:36;;;;;;;;;;;;;;;-144.12;100.00;72078.50;5051948;28;19924;-69
2022/06/12 01:44:04;;;;;;;;;;;;;;;-144.12;100.00;72078.50;5060729;28;19917;-69
2022/06/12 01:46:40;;;;;;;;;;;;;;;-144.12;100.00;72078.50;5058781;28;19917;-69
2022/06/12 01:49:10;;;;;;;;;;;;;;;-144.12;100.00;72078.50;5060539;28;20381;-70
2022/06/12 01:51:41;;;;;;;;;;;;;;;-144.12;100.00;72078.50;5057900;28;20657;-69
2022/06/12 01:54:14;;;;;;;;;;;;;;;-144.12;100.00;72078.50;5061687;28;19924;-69
2022/06/12 01:56:44;;;;;;;;;;;;;;;-144.12;100.00;72078.50;5060015;28;19939;-69
2022/06/12 01:59:19;;;;;;;;;;;;;;;-144.12;100.00;72078.50;5059018;28;19928;-69
2022/06/12 02:01:47;;;;;;;;;;;;;;;-144.12;100.00;72078.50;5056127;28;20447;-69
2022/06/12 02:04:17;;;;;;;;;;;;;;;-144.12;100.00;72078.50;5061904;28;19927;-69
2022/06/12 02:06:53;;;;;;;;;;;;;;;-144.12;100.00;72078.50;5061518;28;19920;-70
2022/06/12 02:09:22;;;;;;;;;;;;;;;-144.12;100.00;72078.50;5056034;28;19925;-69
2022/06/12 02:14:44;;;;;;;;;;;;;;;-144.12;100.00;72078.50;5060435;28;19920;-69
2022/06/12 02:17:11;;;;;;;;;;;;;;;-144.12;100.00;72078.50;5061587;28;20335;-70
2022/06/12 02:19:39;;;;;;;;;;;;;;;-144.12;100.00;72078.50;5063969;28;19924;-69
2022/06/12 02:22:26;;;;;;;;;;;;;;;-144.12;100.00;72078.50;5057362;28;20015;-69
2022/06/12 02:25:14;;;;;;;;;;;;;;;-144.12;100.00;72078.50;5053190;28;19923;-69
2022/06/12 02:28:01;;;;;;;;;;;;;;;-144.12;100.00;72078.50;5068162;28;19999;-71
2022/06/12 02:30:35;;;;;;;;;;;;;;;-144.12;100.00;72078.50;5051399;28;19917;-70
2022/06/12 02:33:03;;;;;;;;;;;;;;;-144.12;100.00;72078.50;5053605;28;19917;-70
2022/06/12 02:35:41;;;;;;;;;;;;;;;-144.12;100.00;72078.50;5066027;28;20019;-70
2022/06/12 02:38:13;;;;;;;;;;;;;;;-144.12;100.00;72078.50;5056766;28;20421;-69
2022/06/12 02:40:43;;;;;;;;;;;;;;;-144.12;100.00;72078.50;5064074;28;19982;-71
2022/06/12 02:43:11;;;;;;;;;;;;;;;-144.12;100.00;72078.50;5056511;28;20012;-72
2022/06/12 02:45:44;;;;;;;;;;;;;;;-144.12;100.00;72078.50;5061525;28;19921;-69
2022/06/12 02:48:10;;;;;;;;;;;;;;;-144.12;100.00;72078.50;5057327;28;19974;-69
2022/06/12 02:50:41;;;;;;;;;;;;;;;-144.12;100.00;72078.50;5047383;28;20311;-70
2022/06/12 02:53:24;;;;;;;;;;;;;;;-144.12;100.00;72078.50;5062667;28;19916;-69
2022/06/12 02:55:49;;;;;;;;;;;;;;;-144.12;100.00;72078.50;5050971;28;19952;-70
2022/06/12 02:58:20;;;;;;;;;;;;;;;-144.12;100.00;72078.50;5055635;28;19962;-69
2022/06/12 03:00:53;;;;;;;;;;;;;;;-144.12;100.00;72078.50;5058851;28;19916;-69
2022/06/12 03:03:21;;;;;;;;;;;;;;;-144.12;100.00;72078.50;5061076;28;19983;-68
2022/06/12 03:05:50;;;;;;;;;;;;;;;-144.12;100.00;72078.50;5057137;28;19921;-70
2022/06/12 03:08:18;;;;;;;;;;;;;;;-144.12;100.00;72078.50;5051537;28;20008;-69
2022/06/12 03:10:50;;;;;;;;;;;;;;;-144.12;100.00;72078.50;5055159;28;19920;-70
2022/06/12 03:13:17;;;;;;;;;;;;;;;-144.12;100.00;72078.50;5058002;28;19917;-70
2022/06/12 03:15:54;;;;;;;;;;;;;;;-144.12;100.00;72078.50;5054655;28;19928;-70
2022/06/12 03:18:23;;;;;;;;;;;;;;;-144.12;100.00;72078.50;5053698;28;19982;-69
2022/06/12 03:21:07;;;;;;;;;;;;;;;-144.12;100.00;72078.50;5073360;28;19920;-72
2022/06/12 03:23:51;;;;;;;;;;;;;;;-144.12;100.00;72078.50;5057399;28;19924;-71
2022/06/12 03:26:23;;;;;;;;;;;;;;;-144.12;100.00;72078.50;5060183;28;19962;-71
2022/06/12 03:29:05;;;;;;;;;;;;;;;-144.12;100.00;72078.50;5063476;28;19917;-72
2022/06/12 03:31:35;;;;;;;;;;;;;;;-144.12;100.00;72078.50;5064760;28;20284;-72
2022/06/12 03:34:00;;;;;;;;;;;;;;;-144.12;100.00;72078.50;5063735;28;19916;-71
2022/06/12 03:36:28;;;;;;;;;;;;;;;-144.12;100.00;72078.50;5056641;28;20305;-71
2022/06/12 03:39:14;;;;;;;;;;;;;;;-144.12;100.00;72078.50;5067218;28;19935;-71
2022/06/12 03:41:51;;;;;;;;;;;;;;;-144.12;100.00;72078.50;5059847;28;19968;-71
2022/06/12 03:44:23;;;;;;;;;;;;;;;-144.12;100.00;72078.50;5059619;28;19921;-71
2022/06/12 03:46:52;;;;;;;;;;;;;;;-144.12;100.00;72078.50;5056046;28;20573;-71
2022/06/12 03:49:35;;;;;;;;;;;;;;;-144.12;100.00;72078.50;5064646;28;19925;-71
2022/06/12 03:52:03;;;;;;;;;;;;;;;-144.12;100.00;72078.50;5060707;28;20270;-71
2022/06/12 03:54:32;;;;;;;;;;;;;;;-144.12;100.00;72078.50;5056353;28;19931;-71
2022/06/12 03:59:50;;;;;;;;;;;;;;;-144.12;100.00;72078.50;5061880;28;19923;-71
2022/06/12 04:02:18;;;;;;;;;;;;;;;-144.12;100.00;72078.50;5055371;28;19920;-71
2022/06/12 04:04:45;;;;;;;;;;;;;;;-144.12;100.00;72078.50;5066855;28;19924;-71
2022/06/12 04:07:13;;;;;;;;;;;;;;;-144.12;100.00;72078.50;5061030;28;19917;-71
2022/06/12 04:09:41;;;;;;;;;;;;;;;-144.12;100.00;72078.50;5064499;28;19934;-71
2022/06/12 04:12:24;;;;;;;;;;;;;;;-144.12;100.00;72078.50;5063853;28;20006;-71
2022/06/12 04:15:18;;;;;;;;;;;;;;;-144.12;100.00;72078.50;5059293;28;20362;-71
2022/06/12 04:17:43;;;;;;;;;;;;;;;-144.12;100.00;72078.50;5055740;28;19920;-71
2022/06/12 04:20:18;;;;;;;;;;;;;;;-144.12;100.00;72078.50;5059798;28;19962;-71
2022/06/12 04:22:50;;;;;;;;;;;;;;;-144.12;100.00;72078.50;5065935;28;20293;-71
2022/06/12 04:25:16;;;;;;;;;;;;;;;-144.12;100.00;72078.50;5057579;28;19917;-71
2022/06/12 04:27:42;;;;;;;;;;;;;;;-144.12;100.00;72078.50;5057624;28;19931;-71
2022/06/12 04:30:28;;;;;;;;;;;;;;;-144.12;100.00;72078.50;5053396;28;19924;-71
2022/06/12 04:33:12;;;;;;;;;;;;;;;-144.12;100.00;72078.50;5056251;28;20289;-71
2022/06/12 04:35:41;;;;;;;;;;;;;;;-144.12;100.00;72078.50;5067732;28;19916;-71
2022/06/12 04:38:06;;;;;;;;;;;;;;;-144.12;100.00;72078.50;5056512;28;20400;-71
2022/06/12 04:40:32;;;;;;;;;;;;;;;-144.12;100.00;72078.50;5057049;28;19920;-71
2022/06/12 04:42:58;;;;;;;;;;;;;;;-144.12;100.00;72078.50;5065083;28;19967;-71
2022/06/12 04:45:23;;;;;;;;;;;;;;;-144.12;100.00;72078.50;5059760;28;19923;-72
2022/06/12 04:47:48;;;;;;;;;;;;;;;-144.12;100.00;72078.50;5062603;28;19967;-71
2022/06/12 04:50:15;;;;;;;;;;;;;;;-144.12;100.00;72078.50;5063497;28;19916;-71
2022/06/12 04:52:40;;;;;;;;;;;;;;;-144.12;100.00;72078.50;5057704;28;19935;-71
2022/06/12 04:55:06;;;;;;;;;;;;;;;-144.12;100.00;72078.50;5063238;28;19916;-71
2022/06/12 04:57:32;;;;;;;;;;;;;;;-144.12;100.00;72078.50;5065418;28;19928;-71
2022/06/12 04:59:57;;;;;;;;;;;;;;;-144.12;100.00;72078.50;5055131;28;20003;-73
2022/06/12 05:02:23;;;;;;;;;;;;;;;-144.12;100.00;72078.50;5058565;28;19940;-71
2022/06/12 05:04:49;;;;;;;;;;;;;;;-144.12;100.00;72078.50;5060532;28;19977;-71
2022/06/12 05:07:14;;;;;;;;;;;;;;;-144.12;100.00;72078.50;5056054;28;19916;-71
2022/06/12 05:09:40;;;;;;;;;;;;;;;-144.12;100.00;72078.50;5054810;28;19917;-71
2022/06/12 05:12:05;;;;;;;;;;;;;;;-144.12;100.00;72078.50;5069708;28;19916;-71
2022/06/12 05:14:31;;;;;;;;;;;;;;;-144.12;100.00;72078.50;5055098;28;19917;-71
2022/06/12 05:17:01;;;;;;;;;;;;;;;-144.12;100.00;72078.50;5060802;28;19921;-71
2022/06/12 05:19:29;;;;;;;;;;;;;;;-144.12;100.00;72078.50;5063649;28;19917;-71
2022/06/12 05:21:55;;;;;;;;;;;;;;;-144.12;100.00;72078.50;5056945;28;19929;-71
2022/06/12 05:24:20;;;;;;;;;;;;;;;-144.12;100.00;72078.50;5061096;28;20021;-71
2022/06/12 05:26:47;;;;;;;;;;;;;;;-144.12;100.00;72078.50;5058667;28;20081;-71
2022/06/12 05:29:14;;;;;;;;;;;;;;;-144.12;100.00;72078.50;5063848;28;20395;-71
2022/06/12 05:31:40;;;;;;;;;;;;;;;-144.12;100.00;72078.50;5058739;28;19921;-71
2022/06/12 05:34:05;;;;;;;;;;;;;;;-144.12;100.00;72078.50;5065822;28;19916;-71
2022/06/12 05:36:31;;;;;;;;;;;;;;;-144.12;100.00;72078.50;5067521;28;19921;-71
2022/06/12 05:38:56;;;;;;;;;;;;;;;-144.12;100.00;72078.50;5057060;28;20007;-71
2022/06/12 05:41:22;;;;;;;;;;;;;;;-144.12;100.00;72078.50;5056876;28;19931;-71
2022/06/12 05:43:47;;;;;;;;;;;;;;;-144.12;100.00;72078.50;5060526;28;19917;-71
2022/06/12 05:46:14;;;;;;;;;;;;;;;-144.12;100.00;72078.50;5051087;28;19970;-71
2022/06/12 05:48:39;;;;;;;;;;;;;;;-144.12;100.00;72078.50;5057042;28;20724;-72
2022/06/12 05:51:05;;;;;;;;;;;;;;;-144.12;100.00;72078.50;5053290;28;19916;-71
2022/06/12 05:53:32;;;;;;;;;;;;;;;-144.12;100.00;72078.50;5058689;28;19926;-71
2022/06/12 05:55:59;;;;;;;;;;;;;;;-144.12;100.00;72078.50;5056179;28;19986;-71
2022/06/12 05:58:25;;;;;;;;;;;;;;;-144.12;100.00;72078.50;5053870;28;19959;-71
2022/06/12 06:00:53;;;;;;;;;;;;;;;-144.12;100.00;72078.50;5064394;28;19920;-71
2022/06/12 06:03:18;;;;;;;;;;;;;;;-144.12;100.00;72078.50;5065378;28;19924;-71
2022/06/12 06:05:45;;;;;;;;;;;;;;;-144.12;100.00;72078.50;5059110;28;20015;-71
2022/06/12 06:08:11;;;;;;;;;;;;;;;-144.12;100.00;72078.50;5062788;28;20014;-71
2022/06/12 06:10:37;;;;;;;;;;;;;;;-144.12;100.00;72078.50;5057071;28;19920;-71
2022/06/12 06:13:03;;;;;;;;;;;;;;;-144.12;100.00;72078.50;5070550;28;20004;-71
2022/06/12 06:15:28;;;;;;;;;;;;;;;-144.12;100.00;72078.50;5059452;28;19917;-71
2022/06/12 06:17:54;;;;;;;;;;;;;;;-144.12;100.00;72078.50;5058346;28;20405;-71
2022/06/12 06:20:24;;;;;;;;;;;;;;;-144.12;100.00;72078.50;5053193;28;19917;-71
2022/06/12 06:22:51;;;;;;;;;;;;;;;-144.12;100.00;72078.50;5062705;28;19920;-71
2022/06/12 06:25:17;;;;;;;;;;;;;;;-144.12;100.00;72078.50;5060846;28;19917;-71
2022/06/12 06:27:42;;;;;;;;;;;;;;;-144.12;100.00;72078.50;5054744;28;19917;-71
2022/06/12 06:30:08;;;;;;;;;;;;;;;-144.12;100.00;72078.50;5065815;28;20410;-71
2022/06/12 06:32:34;;;;;;;;;;;;;;;-144.12;100.00;72078.50;5053208;28;20289;-71
2022/06/12 06:35:00;;;;;;;;;;;;;;;-144.12;100.00;72078.50;5060824;28;19982;-71
2022/06/12 06:37:26;;;;;;;;;;;;;;;-144.12;100.00;72078.50;5051499;28;19916;-71
2022/06/12 06:39:51;;;;;;;;;;;;;;;-144.12;100.00;72078.50;5060713;28;20389;-71
2022/06/12 06:42:17;;;;;;;;;;;;;;;-144.12;100.00;72078.50;5059371;28;20082;-71
2022/06/12 06:47:27;;;;;;;;;;;;;;;-144.12;100.00;72078.50;5058468;28;20404;-71
2022/06/12 06:49:53;;;;;;;;;;;;;;;-144.12;100.00;72078.50;5063021;28;19920;-71
2022/06/12 06:52:19;;;;;;;;;;;;;;;-144.12;100.00;72078.50;5052696;28;20009;-71
2022/06/12 06:54:44;;;;;;;;;;;;;;;-144.12;100.00;72078.50;5046147;28;19916;-70
2022/06/12 06:57:10;;;;;;;;;;;;;;;-144.12;100.00;72078.50;5064650;28;19924;-70
2022/06/12 06:59:36;;;;;;;;;;;;;;;-144.12;100.00;72078.50;5052374;28;19917;-70
2022/06/12 07:02:02;;;;;;;;;;;;;;;-144.12;100.00;72078.50;5058458;28;20375;-70
2022/06/12 07:04:27;;;;;;;;;;;;;;;-144.12;100.00;72078.50;5049682;28;19920;-71
2022/06/12 07:06:53;;;;;;;;;;;;;;;-144.12;100.00;72078.50;5052395;28;19974;-71
2022/06/12 07:09:18;;;;;;;;;;;;;;;-144.12;100.00;72078.50;5058813;28;19943;-71
2022/06/12 07:11:44;;;;;;;;;;;;;;;-144.12;100.00;72078.50;5062167;28;19921;-71
2022/06/12 07:14:09;;;;;;;;;;;;;;;-144.12;100.00;72078.50;5068445;28;19978;-71
2022/06/12 07:16:35;;;;;;;;;;;;;;;-144.12;100.00;72078.50;5062132;28;20018;-70
2022/06/12 07:19:01;;;;;;;;;;;;;;;-144.12;100.00;72078.50;5054294;28;19931;-68
2022/06/12 07:21:27;;;;;;;;;;;;;;;-144.12;100.00;72078.50;5055931;28;19920;-71
2022/06/12 07:23:52;;;;;;;;;;;;;;;-144.12;100.00;72078.50;5067718;28;19935;-69
2022/06/12 07:26:21;;;;;;;;;;;;;;;-144.12;100.00;72078.50;5063521;28;19921;-69
2022/06/12 07:28:47;;;;;;;;;;;;;;;-144.12;100.00;72078.50;5066812;28;19916;-68
2022/06/12 07:31:12;;;;;;;;;;;;;;;-144.12;100.00;72078.50;5062441;28;20396;-69
2022/06/12 07:33:38;;;;;;;;;;;;;;;-144.12;100.00;72078.50;5057081;28;19993;-70
2022/06/12 07:36:05;;;;;;;;;;;;;;;-144.12;100.00;72078.50;5061399;28;20475;-69
2022/06/12 07:38:30;;;;;;;;;;;;;;;-144.12;100.00;72078.50;5060594;28;20100;-70
2022/06/12 07:41:04;;;;;;;;;;;;;;;-144.12;100.00;72078.50;5063534;28;19917;-69
2022/06/12 07:43:33;;;;;;;;;;;;;;;-144.12;100.00;72078.50;5065494;28;19920;-69
2022/06/12 07:45:59;;;;;;;;;;;;;;;-144.12;100.00;72078.50;5065328;28;19931;-69
2022/06/12 07:48:24;;;;;;;;;;;;;;;-144.12;100.00;72078.50;5063944;28;19928;-69
2022/06/12 07:50:50;;;;;;;;;;;;;;;-144.12;100.00;72078.50;5062679;28;19925;-69
2022/06/12 07:53:16;;;;;;;;;;;;;;;-144.12;100.00;72078.50;5069259;28;19986;-68
2022/06/12 07:55:42;;;;;;;;;;;;;;;-144.12;100.00;72078.50;5064130;28;19920;-68
2022/06/12 07:58:09;;;;;;;;;;;;;;;-144.12;100.00;72078.50;5058658;28;20511;-69
2022/06/12 08:00:35;;;;;;;;;;;;;;;-144.12;100.00;72078.50;5061538;28;19923;-68
2022/06/12 08:03:01;;;;;;;;;;;;;;;-144.12;100.00;72078.50;5064259;28;20023;-69
2022/06/12 08:05:26;;;;;;;;;;;;;;;-144.12;100.00;72078.50;5054012;28;20011;-68
2022/06/12 08:07:52;;;;;;;;;;;;;;;-144.12;100.00;72078.50;5064786;28;20541;-69
2022/06/12 08:10:17;;;;;;;;;;;;;;;-144.12;100.00;72078.50;5054992;28;19920;-69
2022/06/12 08:12:43;;;;;;;;;;;;;;;-144.12;100.00;72078.50;5059486;28;19916;-69
2022/06/12 08:15:11;;;;;;;;;;;;;;;-144.12;100.00;72078.50;5055752;28;20448;-68
2022/06/12 08:17:36;;;;;;;;;;;;;;;-144.12;100.00;72078.50;5067971;28;19916;-69
2022/06/12 08:22:46;;;;;;;;;;;;;;;-144.12;100.00;72078.50;5059045;28;19966;-69
2022/06/12 08:25:11;;;;;;;;;;;;;;;-144.12;100.00;72078.50;5060182;28;20320;-69
2022/06/12 08:27:37;;;;;;;;;;;;;;;-144.12;100.00;72078.50;5056118;28;19946;-70
2022/06/12 08:30:04;;;;;;;;;;;;;;;-144.12;100.00;72078.50;5059227;28;19920;-69
2022/06/12 08:32:32;;;;;;;;;;;;;;;-144.12;100.00;72078.50;5064949;28;20389;-70
2022/06/12 08:35:00;;;;;;;;;;;;;;;-144.12;100.00;72078.50;5065558;28;19928;-70
2022/06/12 08:37:30;;;;;;;;;;;;;;;-144.12;100.00;72078.50;5060261;28;19924;-69
2022/06/12 08:39:56;;;;;;;;;;;;;;;-144.12;100.00;72078.50;5067643;28;19920;-68
2022/06/12 08:42:24;;;;;;;;;;;;;;;-144.12;100.00;72078.50;5060445;28;19921;-68
2022/06/12 08:45:03;;;;;;;;;;;;;;;-144.12;100.00;72078.50;5061851;28;19927;-68
2022/06/12 08:47:31;;;;;;;;;;;;;;;-144.12;100.00;72078.50;5060957;28;19924;-70
2022/06/12 08:50:17;;;;;;;;;;;;;;;-144.12;100.00;72078.50;5059793;28;20035;-69
2022/06/12 08:53:08;;;;;;;;;;;;;;;-144.12;100.00;72078.50;5040947;28;19973;-68
2022/06/12 08:55:36;;;;;;;;;;;;;;;-144.12;100.00;72078.50;5040410;28;20274;-69
2022/06/12 08:58:12;;;;;;;;;;;;;;;-144.12;100.00;72078.50;5067494;28;19946;-70
2022/06/12 09:00:39;;;;;;;;;;;;;;;-144.12;100.00;72078.50;5061393;28;20479;-71
2022/06/12 09:03:07;;;;;;;;;;;;;;;-144.12;100.00;72078.50;5067750;28;19974;-70
2022/06/12 09:05:41;;;;;;;;;;;;;;;-144.12;100.00;72078.50;5063999;28;19917;-69
2022/06/12 09:08:13;;;;;;;;;;;;;;;-144.12;100.00;72078.50;5061038;28;19924;-69
2022/06/12 09:10:46;;;;;;;;;;;;;;;-144.12;100.00;72078.50;5060332;28;19944;-68
2022/06/12 09:13:26;;;;;;;;;;;;;;;-144.12;100.00;72078.50;5066321;28;20566;-68
2022/06/12 09:16:10;;;;;;;;;;;;;;;-144.12;100.00;72078.50;5063302;28;19924;-68
2022/06/12 09:18:36;;;;;;;;;;;;;;;-144.12;100.00;72078.50;5059217;28;19917;-69
2022/06/12 09:21:10;;;;;;;;;;;;;;;-144.12;100.00;72078.50;5063117;28;20487;-70
2022/06/12 09:23:45;;;;;;;;;;;;;;;-144.12;100.00;72078.50;5061911;28;19967;-69
2022/06/12 09:26:37;;;;;;;;;;;;;;;-144.12;100.00;72078.50;5054503;28;20007;-68
2022/06/12 09:29:13;;;;;;;;;;;;;;;-144.12;100.00;72078.50;5045054;28;19920;-68
2022/06/12 09:31:43;;;;;;;;;;;;;;;-144.12;100.00;72078.50;5055376;28;20019;-68
2022/06/12 09:34:29;;;;;;;;;;;;;;;-144.12;100.00;72078.50;5060753;28;19920;-69
2022/06/12 09:40:07;;;;;;;;;;;;;;;-144.12;100.00;72078.50;5057675;28;19916;-68
2022/06/12 09:42:51;;;;;;;;;;;;;;;-144.12;100.00;72078.50;5054435;28;20389;-68
2022/06/12 09:45:17;;;;;;;;;;;;;;;-144.12;100.00;72078.50;5057796;28;19916;-68
2022/06/12 09:47:48;;;;;;;;;;;;;;;-144.12;100.00;72078.50;5061419;28;19924;-69
2022/06/12 09:50:36;;;;;;;;;;;;;;;-144.12;100.00;72078.50;5052952;28;19917;-71
2022/06/12 09:53:01;;;;;;;;;;;;;;;-144.12;100.00;72078.50;5056808;28;20277;-71
2022/06/12 09:55:26;;;;;;;;;;;;;;;-144.12;100.00;72078.50;5055956;28;19978;-71
2022/06/12 09:58:00;;;;;;;;;;;;;;;-144.12;100.00;72078.50;5064033;28;20333;-71
2022/06/12 10:00:51;;;;;;;;;;;;;;;-144.12;100.00;72078.50;5060846;28;19943;-71
2022/06/12 10:03:25;;;;;;;;;;;;;;;-144.12;100.00;72078.50;5061516;28;21435;-70
2022/06/12 10:05:54;;;;;;;;;;;;;;;-144.12;100.00;72078.50;5062619;28;19927;-69
2022/06/12 10:08:36;;;;;;;;;;;;;;;-144.12;100.00;72078.50;5061582;28;19916;-70
2022/06/12 10:11:16;;;;;;;;;;;;;;;-144.12;100.00;72078.50;5065070;28;19963;-71
2022/06/12 10:13:45;;;;;;;;;;;;;;;-144.12;100.00;72078.50;5062574;28;19939;-68
2022/06/12 10:16:46;;;;;;;;;;;;;;;-144.12;100.00;72078.50;5063898;28;20379;-70
2022/06/12 10:19:24;;;;;;;;;;;;;;;-144.12;100.00;72078.50;5041777;28;20740;-69
2022/06/12 10:21:51;;;;;;;;;;;;;;;-144.12;100.00;72078.50;5045185;28;20485;-70
2022/06/12 10:24:17;;;;;;;;;;;;;;;-144.12;100.00;72078.50;5054368;28;19959;-69
2022/06/12 10:26:52;;;;;;;;;;;;;;;-144.12;100.00;72078.50;5057171;28;20002;-70
2022/06/12 10:29:20;;;;;;;;;;;;;;;-144.12;100.00;72078.50;5055934;28;19945;-69
2022/06/12 10:31:56;;;;;;;;;;;;;;;-144.12;100.00;72078.50;5061550;28;19916;-69
2022/06/12 10:34:23;;;;;;;;;;;;;;;-144.12;100.00;72078.50;5062388;28;19917;-69
2022/06/12 10:36:48;;;;;;;;;;;;;;;-144.12;100.00;72078.50;5058499;28;19986;-69
2022/06/12 10:39:14;;;;;;;;;;;;;;;-144.12;100.00;72078.50;5056747;28;20442;-69
2022/06/12 10:41:42;;;;;;;;;;;;;;;-144.12;100.00;72078.50;5052389;28;20396;-69
2022/06/12 10:44:24;;;;;;;;;;;;;;;25.88;66.79;101292.94;5062315;28;19932;-69
2022/06/12 10:46:50;;;;;;;;;;;;;;;29.60;36.33;101290.25;5062615;28;20007;-69
2022/06/12 10:49:17;;;;;;;;;;;;;;;29.73;35.79;101301.97;5067123;28;20054;-68
2022/06/12 10:51:43;;;;;;;;;;;;;;;29.90;36.13;101280.88;5064766;28;20062;-69
2022/06/12 10:54:14;;;;;;;;;;;;;;;30.07;36.51;101282.00;5058649;28;19931;-69
2022/06/12 10:56:40;;;;;;;;;;;;;;;30.35;35.27;101285.38;5061904;28;19923;-71
2022/06/12 10:59:23;;;;;;;;;;;;;;;30.50;34.69;101279.84;5057313;28;19917;-69
2022/06/12 11:01:52;;;;;;;;;;;;;;;30.28;35.98;101285.72;5065665;28;19936;-70
2022/06/12 11:04:37;;;;;;;;;;;;;;;30.01;36.23;101275.56;5066854;28;19929;-69
2022/06/12 11:07:23;;;;;;;;;;;;;;;29.84;37.05;101270.88;5065609;28;19924;-69
2022/06/12 11:10:07;;;;;;;;;;;;;;;29.57;36.35;101273.78;5061172;28;19921;-69
2022/06/12 11:12:42;;;;;;;;;;;;;;;29.77;36.86;101266.44;5064172;28;19923;-69
2022/06/12 11:15:07;;;;;;;;;;;;;;;29.86;37.88;101260.84;5060927;28;19924;-69
2022/06/12 11:17:36;;;;;;;;;;;;;;;30.09;34.74;101262.06;5065334;28;19924;-69
2022/06/12 11:20:19;;;;;;;;;;;;;;;29.98;35.14;101270.94;5064686;28;20551;-69
2022/06/12 11:22:49;;;;;;;;;;;;;;;29.72;35.98;101267.09;5054859;28;20070;-69
2022/06/12 11:25:17;;;;;;;;;;;;;;;29.76;36.70;101264.13;5060017;28;19924;-69
2022/06/12 11:28:00;;;;;;;;;;;;;;;29.82;37.23;101259.47;5076555;28;19927;-69
2022/06/12 11:30:40;;;;;;;;;;;;;;;30.09;37.38;101260.06;5065978;28;19925;-69
2022/06/12 11:33:33;;;;;;;;;;;;;;;30.13;36.89;101251.53;5067611;28;19951;-70
2022/06/12 11:36:11;;;;;;;;;;;;;;;29.96;37.38;101242.88;5064755;28;19920;-69
2022/06/12 11:38:36;;;;;;;;;;;;;;;29.84;36.98;101243.09;5069043;28;19924;-69
2022/06/12 11:53:58;;;;;;;0.40;0.10;;;;;;;26.77;40.93;101231.44;5111713;27;20473;-67
2022/06/12 11:56:24;;;;;;;0.20;0.20;;;;;;;26.91;41.82;101232.13;5090639;28;20490;-67
2022/06/12 11:59:22;;;;;;;0.45;0.17;;;;;;;27.18;40.60;101237.81;5095774;28;20081;-66
2022/06/12 12:02:12;;;;;;;1.10;0.20;;;;;;;27.54;39.45;101222.16;5095438;28;20039;-66
2022/06/12 12:04:40;;;;;;;0.52;0.20;;;;;;;27.33;38.32;101213.94;5096083;28;20039;-66
2022/06/12 12:07:06;;;;;;;0.57;0.30;;;;;;;27.48;40.37;101212.13;5089077;28;20056;-66
2022/06/12 12:09:52;;;;;;;0.00;0.00;;;;;;;27.38;41.41;101208.56;5092905;28;20155;-67
2022/06/12 12:12:23;;;;;;;0.10;0.10;;;;;;;27.68;38.17;101213.25;5087020;28;20109;-66
2022/06/12 12:14:51;;;;;;;0.13;0.13;;;;;;;27.54;38.76;101210.31;5092631;28;20040;-66
2022/06/12 12:17:32;;;;;;;0.32;0.25;;;;;;;27.29;38.02;101197.41;5091411;28;20038;-66
2022/06/12 12:20:04;;;;;;;0.20;0.20;;;;;;;27.33;40.30;101192.53;5091158;28;20042;-65
2022/06/12 12:22:39;;;;;;;0.55;0.30;;;;;;;27.03;41.55;101196.09;5095188;28;20450;-66
2022/06/12 12:25:04;;;;;;;2.58;0.28;;;;;;;26.89;40.33;101201.44;5088671;28;20446;-65
2022/06/12 12:27:38;;;;;;;1.10;0.10;;;;;;;26.70;41.03;101198.53;5077021;28;20063;-65
2022/06/12 12:30:16;;;;;;;2.28;0.30;;;;;;;26.70;40.90;101204.06;5089610;28;20038;-65
2022/06/12 12:32:42;;;;;;;0.10;0.10;;;;;;;26.42;40.99;101191.25;5095920;28;20472;-66
2022/06/12 12:41:11;;;;;;;0.60;0.20;;;;;;;26.62;41.22;101193.69;5093422;28;20032;-65
2022/06/12 12:43:25;;;;;;;0.65;0.30;;;;;;;26.83;41.88;101197.69;5094321;28;20035;-66
2022/06/12 12:46:05;;;;;;;1.30;0.28;;;;;;;26.69;43.08;101196.97;5094391;28;20032;-65
2022/06/12 12:48:41;;;;;;;0.52;0.10;;;;;;;26.97;42.33;101192.38;5099807;28;20027;-65
2022/06/12 12:51:07;;;;;;;0.20;0.20;;;;;;;26.86;42.04;101191.25;5089052;28;20132;-65
2022/06/12 12:53:37;;;;;;;1.55;0.30;;;;;;;26.87;42.71;101190.78;5093009;28;20039;-65
2022/06/12 12:56:12;;;;;;;0.82;0.30;;;;;;;27.07;41.77;101187.66;5085915;28;20035;-65
2022/06/12 12:59:00;;;;;;;0.55;0.20;;;;;;;27.17;40.21;101178.19;5089714;28;20371;-65
2022/06/12 13:01:36;;;;;;;1.75;0.20;;;;;;;27.35;40.39;101190.09;5092613;28;20032;-65
2022/06/12 13:04:23;;;;;;;0.20;0.20;;;;;;;27.28;41.64;101181.28;5081473;28;20354;-65
2022/06/12 13:06:55;;;;;;;1.33;0.93;;;;;;;27.11;41.23;101178.00;5077884;28;20040;-65